Bonnerdale, Arkansas
Current Conditions -  °F | °C
As of 9:53 AM on Wednesday 26 Nov 2014 (Local Time) from KHOT Reporting Station
Clear Clear  
Wind Chill: 42°   Ceiling: Unl
Heat Index: 44°   Visibility: 10mi
Dew Point: 35°   Wind: 5mph
Humidity: 71%   Direction: 320°NW
Pressure: 30.06"   Gusts: NA
Location:  34.43°N, 93.32°W
Report Text: KHOT 261553Z AUTO 32004KT 10SM CLR 07/02 A3006 RMK AO2 SLP179 T00670017
Loading
Personal Weather Stations






























Interactive Weather Map New forecast layout! Learn more

10-Day Weather Forecast

Advertisements
Track Severe Weather on mobile